createdAt,value
2019-04-03T00:00:05.266Z,34.03
2019-04-03T00:02:34.913Z,32.35
2019-04-03T00:05:05.123Z,30.45
2019-04-03T00:07:35.853Z,33.30
2019-04-03T00:10:07.418Z,28.32
2019-04-03T00:12:36.605Z,30.23
2019-04-03T00:15:07.969Z,28.90
2019-04-03T00:17:36.765Z,28.02
2019-04-03T00:20:07.808Z,24.77
2019-04-03T00:22:38.285Z,26.33
2019-04-03T00:25:07.779Z,35.92
2019-04-03T00:27:36.279Z,27.05
2019-04-03T00:30:07.581Z,24.95
2019-04-03T00:32:37.099Z,24.98
2019-04-03T00:35:07.611Z,23.73
2019-04-03T00:37:36.959Z,22.27
2019-04-03T00:40:07.476Z,21.60
2019-04-03T00:42:35.940Z,21.42
2019-04-03T00:45:06.876Z,23.00
2019-04-03T00:47:35.299Z,21.48
2019-04-03T00:50:26.891Z,23.45
2019-04-03T00:52:57.084Z,22.58
2019-04-03T00:55:26.605Z,21.85
2019-04-03T00:57:56.437Z,23.77
2019-04-03T01:00:26.462Z,20.70
2019-04-03T01:02:58.108Z,24.63
2019-04-03T01:05:28.125Z,22.55
2019-04-03T01:07:59.184Z,26.17
2019-04-03T01:10:29.308Z,22.45
2019-04-03T01:13:01.358Z,20.90
2019-04-03T01:15:29.799Z,20.88
2019-04-03T01:17:58.971Z,22.62
2019-04-03T01:20:28.404Z,22.50
2019-04-03T01:22:56.831Z,23.02
2019-04-03T01:25:27.463Z,21.02
2019-04-03T01:27:57.076Z,20.97
2019-04-03T01:30:25.544Z,17.48
2019-04-03T01:32:54.022Z,21.90
2019-04-03T01:35:22.483Z,20.37
2019-04-03T01:37:51.220Z,25.97
2019-04-03T01:40:20.868Z,22.05
2019-04-03T01:42:52.151Z,20.55
2019-04-03T01:45:19.704Z,21.65
2019-04-03T01:47:48.145Z,22.98
2019-04-03T01:50:16.828Z,22.17
2019-04-03T01:52:45.274Z,21.68
2019-04-03T01:55:13.700Z,21.23
2019-04-03T01:57:42.140Z,22.95
2019-04-03T02:00:11.324Z,21.02
2019-04-03T02:02:39.763Z,22.20
2019-04-03T02:05:12.122Z,23.38
2019-04-03T02:07:39.853Z,22.27
2019-04-03T02:10:20.370Z,21.55
2019-04-03T02:12:50.648Z,21.17
2019-04-03T02:15:21.581Z,21.25
2019-04-03T02:17:50.453Z,21.23
2019-04-03T02:20:19.229Z,25.52
2019-04-03T02:23:07.248Z,20.68
2019-04-03T02:25:36.038Z,22.00
2019-04-03T02:28:06.503Z,20.72
2019-04-03T02:30:35.116Z,20.35
2019-04-03T02:33:03.552Z,18.40
2019-04-03T02:35:32.830Z,18.73
2019-04-03T02:38:01.478Z,25.45
2019-04-03T02:40:32.522Z,19.27
2019-04-03T02:43:00.234Z,20.30
2019-04-03T02:45:28.936Z,21.52
2019-04-03T02:47:57.732Z,21.35
2019-04-03T02:50:48.552Z,22.40
2019-04-03T02:53:18.645Z,22.10
2019-04-03T02:55:47.388Z,21.68
2019-04-03T02:58:16.275Z,22.32
2019-04-03T03:00:44.860Z,23.70
2019-04-03T03:03:16.084Z,21.52
2019-04-03T03:05:43.451Z,22.45
2019-04-03T03:08:13.143Z,22.77
2019-04-03T03:10:42.957Z,23.05
2019-04-03T03:13:11.878Z,24.25
2019-04-03T03:15:43.874Z,23.22
2019-04-03T03:18:12.528Z,19.48
2019-04-03T03:21:02.179Z,20.65
2019-04-03T03:23:30.686Z,20.75
2019-04-03T03:25:59.466Z,23.30
2019-04-03T03:28:28.398Z,23.70
2019-04-03T03:31:02.678Z,23.15
2019-04-03T03:33:35.589Z,28.60
2019-04-03T03:35:59.661Z,23.85
2019-04-03T03:38:29.774Z,24.60
2019-04-03T03:40:58.826Z,23.75
2019-04-03T03:43:27.895Z,25.75
2019-04-03T03:45:56.871Z,24.85
2019-04-03T03:48:25.853Z,25.60
2019-04-03T03:50:57.237Z,26.00
2019-04-03T03:53:24.835Z,25.27
2019-04-03T03:55:56.895Z,26.25
2019-04-03T03:58:23.918Z,25.75
2019-04-03T04:01:11.902Z,29.87
2019-04-03T04:03:42.176Z,33.38
2019-04-03T04:06:12.305Z,27.80
2019-04-03T04:08:44.287Z,29.87
2019-04-03T04:11:12.254Z,27.77
2019-04-03T04:13:41.154Z,30.82
2019-04-03T04:16:09.641Z,34.43
2019-04-03T04:18:38.543Z,41.60
2019-04-03T04:21:09.399Z,38.95
2019-04-03T04:23:37.704Z,44.55
2019-04-03T04:26:06.821Z,43.92
2019-04-03T04:28:39.216Z,39.88
2019-04-03T04:31:07.589Z,44.70
2019-04-03T04:33:36.343Z,41.05
2019-04-03T04:36:06.055Z,42.60
2019-04-03T04:38:34.491Z,45.65
2019-04-03T04:41:02.918Z,44.08
2019-04-03T04:43:31.623Z,42.90
2019-04-03T04:46:01.023Z,40.52
2019-04-03T04:48:29.461Z,42.10
2019-04-03T04:50:57.883Z,40.65
2019-04-03T04:53:29.364Z,43.10
2019-04-03T04:55:56.829Z,37.35
2019-04-03T04:58:25.618Z,40.45
2019-04-03T05:00:54.540Z,39.92
2019-04-03T05:03:23.004Z,40.35
2019-04-03T05:05:51.519Z,36.88
2019-04-03T05:08:20.040Z,40.90
2019-04-03T05:10:49.316Z,37.95
2019-04-03T05:13:17.891Z,33.98
2019-04-03T05:15:46.324Z,34.43
2019-04-03T05:18:15.945Z,34.00
2019-04-03T05:20:44.374Z,37.78
2019-04-03T05:23:13.004Z,35.40
2019-04-03T05:25:41.687Z,37.28
2019-04-03T05:28:10.492Z,37.20
2019-04-03T05:30:38.914Z,35.78
2019-04-03T05:33:07.556Z,38.42
2019-04-03T05:35:37.664Z,40.10
2019-04-03T05:38:06.807Z,35.45
2019-04-03T05:40:35.444Z,37.03
2019-04-03T05:43:04.271Z,38.42
2019-04-03T05:45:34.692Z,43.17
2019-04-03T05:48:03.109Z,39.08
2019-04-03T05:50:35.583Z,40.33
2019-04-03T05:53:05.651Z,39.40
2019-04-03T05:55:33.111Z,36.15
2019-04-03T05:58:01.608Z,39.85
2019-04-03T06:00:30.550Z,37.58
2019-04-03T06:02:59.039Z,35.43
2019-04-03T06:05:28.467Z,35.33
2019-04-03T06:07:57.372Z,36.75
2019-04-03T06:10:27.660Z,35.33
2019-04-03T06:12:56.437Z,34.75
2019-04-03T06:15:25.034Z,34.95
2019-04-03T06:17:55.364Z,34.48
2019-04-03T06:20:24.190Z,34.30
2019-04-03T06:22:52.986Z,35.10
2019-04-03T06:25:21.915Z,34.83
2019-04-03T06:27:50.484Z,31.33
2019-04-03T06:30:18.981Z,30.90
2019-04-03T06:32:47.692Z,27.67
2019-04-03T06:35:16.202Z,28.10
2019-04-03T06:37:45.022Z,26.87
2019-04-03T06:40:15.830Z,26.02
2019-04-03T06:42:45.652Z,24.23
2019-04-03T06:45:16.086Z,23.27
2019-04-03T06:47:45.156Z,23.27
2019-04-03T06:50:16.924Z,24.77
2019-04-03T06:52:44.889Z,23.45
2019-04-03T06:55:13.352Z,24.55
2019-04-03T06:57:41.941Z,25.27
2019-04-03T07:00:10.856Z,22.60
2019-04-03T07:02:39.282Z,25.20
2019-04-03T07:05:09.587Z,23.10
2019-04-03T07:07:38.434Z,24.70
2019-04-03T07:10:09.240Z,22.05
2019-04-03T07:12:37.733Z,22.70
2019-04-03T07:15:07.770Z,22.60
2019-04-03T07:17:36.280Z,22.02
2019-04-03T07:20:13.560Z,26.50
2019-04-03T07:22:36.318Z,24.12
2019-04-03T07:25:07.702Z,24.60
2019-04-03T07:27:41.261Z,23.30
2019-04-03T07:30:09.291Z,24.05
2019-04-03T07:32:37.923Z,23.83
2019-04-03T07:35:09.742Z,21.52
2019-04-03T07:37:37.401Z,24.55
2019-04-03T07:40:07.257Z,26.50
2019-04-03T07:42:36.129Z,28.38
2019-04-03T07:45:08.994Z,26.60
2019-04-03T07:47:37.743Z,28.98
2019-04-03T07:50:11.166Z,27.42
2019-04-03T07:52:39.225Z,25.05
2019-04-03T07:55:08.487Z,33.80
2019-04-03T07:57:37.495Z,28.12
2019-04-03T08:00:09.447Z,27.65
2019-04-03T08:02:57.208Z,26.27
2019-04-03T08:05:25.648Z,32.25
2019-04-03T08:07:54.098Z,28.65
2019-04-03T08:10:22.903Z,28.38
2019-04-03T08:12:51.339Z,33.80
2019-04-03T08:15:19.784Z,33.55
2019-04-03T08:17:49.898Z,27.98
2019-04-03T08:20:20.066Z,30.80
2019-04-03T08:22:48.964Z,29.32
2019-04-03T08:25:17.409Z,30.70
2019-04-03T08:27:46.098Z,30.35
2019-04-03T08:30:15.746Z,33.42
2019-04-03T08:32:45.662Z,30.20
2019-04-03T08:35:22.415Z,31.20
2019-04-03T08:37:45.657Z,38.23
2019-04-03T08:40:15.127Z,36.83
2019-04-03T08:42:43.551Z,31.37
2019-04-03T08:45:12.686Z,39.27
2019-04-03T08:47:44.351Z,32.70
2019-04-03T08:50:12.263Z,32.83
2019-04-03T08:52:40.910Z,33.80
2019-04-03T08:55:12.876Z,33.20
2019-04-03T08:57:41.299Z,31.57
2019-04-03T09:00:10.791Z,34.18
2019-04-03T09:02:42.493Z,31.45
2019-04-03T09:05:13.182Z,30.57
2019-04-03T09:07:40.384Z,30.08
2019-04-03T09:10:10.189Z,30.08
2019-04-03T09:12:38.935Z,29.32
2019-04-03T09:15:08.495Z,27.62
2019-04-03T09:17:37.211Z,27.87
2019-04-03T09:20:06.178Z,29.65
2019-04-03T09:22:34.684Z,31.12
2019-04-03T09:25:04.198Z,24.57
2019-04-03T09:27:32.682Z,27.00
2019-04-03T09:30:01.123Z,26.27
2019-04-03T09:32:30.083Z,28.10
2019-04-03T09:35:00.543Z,26.70
2019-04-03T09:37:29.036Z,26.33
2019-04-03T09:39:57.831Z,26.12
2019-04-03T09:42:26.263Z,32.08
2019-04-03T09:44:56.233Z,33.67
2019-04-03T09:47:25.143Z,32.50
2019-04-03T09:49:53.595Z,31.07
2019-04-03T09:52:23.603Z,30.57
2019-04-03T09:54:52.215Z,28.92
2019-04-03T09:57:20.969Z,31.62
2019-04-03T09:59:49.816Z,27.50
2019-04-03T10:02:19.559Z,30.60
2019-04-03T10:04:48.404Z,23.95
2019-04-03T10:07:16.838Z,24.87
2019-04-03T10:09:45.285Z,24.52
2019-04-03T10:12:14.092Z,24.92
2019-04-03T10:14:42.775Z,28.90
2019-04-03T10:17:11.609Z,28.07
2019-04-03T10:19:40.764Z,26.62
2019-04-03T10:22:10.119Z,32.05
2019-04-03T10:24:38.724Z,26.82
2019-04-03T10:27:10.460Z,23.35
2019-04-03T10:29:37.991Z,25.25
2019-04-03T10:32:07.610Z,22.00
2019-04-03T10:34:36.227Z,24.87
2019-04-03T10:37:04.961Z,24.30
2019-04-03T10:39:33.766Z,27.62
2019-04-03T10:42:03.878Z,23.80
2019-04-03T10:44:32.409Z,23.87
2019-04-03T10:47:00.832Z,23.42
2019-04-03T10:49:30.041Z,26.93
2019-04-03T10:51:59.797Z,22.98
2019-04-03T10:54:28.303Z,34.15
2019-04-03T10:56:56.728Z,29.30
2019-04-03T10:59:26.110Z,23.95
2019-04-03T11:01:55.123Z,24.82
2019-04-03T11:04:23.959Z,24.55
2019-04-03T11:06:52.443Z,25.80
2019-04-03T11:09:21.183Z,22.42
2019-04-03T11:11:50.928Z,31.20
2019-04-03T11:14:19.712Z,20.68
2019-04-03T11:16:48.389Z,22.82
2019-04-03T11:19:19.430Z,22.48
2019-04-03T11:21:47.243Z,23.77
2019-04-03T11:24:15.694Z,29.37
2019-04-03T11:26:44.117Z,25.02
2019-04-03T11:29:12.769Z,26.42
2019-04-03T11:31:42.651Z,21.42
2019-04-03T11:34:11.776Z,21.62
2019-04-03T11:36:40.211Z,19.82
2019-04-03T11:39:14.794Z,20.52
2019-04-03T11:41:40.319Z,22.60
2019-04-03T11:44:08.999Z,21.68
2019-04-03T11:46:37.684Z,24.40
2019-04-03T11:49:06.606Z,24.60
2019-04-03T11:51:35.172Z,23.40
2019-04-03T11:54:06.765Z,25.00
2019-04-03T11:56:34.127Z,25.68
2019-04-03T11:59:02.938Z,26.00
2019-04-03T12:01:31.544Z,29.77
2019-04-03T12:03:59.980Z,27.95
2019-04-03T12:06:28.499Z,25.95
2019-04-03T12:08:59.737Z,27.60
2019-04-03T12:11:27.443Z,26.33
2019-04-03T12:13:56.175Z,26.45
2019-04-03T12:16:25.997Z,24.23
2019-04-03T12:18:55.085Z,31.23
2019-04-03T12:21:23.867Z,32.17
2019-04-03T12:23:52.296Z,28.10
2019-04-03T12:26:21.322Z,26.07
2019-04-03T12:28:50.167Z,24.82
2019-04-03T12:31:20.472Z,25.20
2019-04-03T12:33:56.319Z,26.37
2019-04-03T12:36:19.444Z,27.82
2019-04-03T12:38:47.872Z,26.02
2019-04-03T12:41:18.251Z,28.00
2019-04-03T12:43:49.060Z,26.48
2019-04-03T12:46:18.892Z,26.35
2019-04-03T12:48:50.879Z,26.35
2019-04-03T12:51:20.410Z,25.32
2019-04-03T12:53:49.372Z,28.55
2019-04-03T12:56:18.774Z,26.87
2019-04-03T12:58:47.456Z,23.73
2019-04-03T13:01:18.002Z,23.50
2019-04-03T13:03:46.187Z,21.93
2019-04-03T13:06:14.920Z,23.07
2019-04-03T13:08:43.847Z,23.25
2019-04-03T13:11:12.431Z,20.65
2019-04-03T13:13:41.252Z,22.45
2019-04-03T13:16:10.957Z,24.10
2019-04-03T13:18:39.940Z,22.60
2019-04-03T13:21:11.299Z,22.65
2019-04-03T13:23:40.123Z,23.45
2019-04-03T13:26:08.609Z,25.15
2019-04-03T13:28:39.787Z,23.42
2019-04-03T13:31:07.599Z,20.62
2019-04-03T13:33:38.206Z,25.65
2019-04-03T13:36:07.321Z,26.62
2019-04-03T13:38:36.958Z,28.75
2019-04-03T13:41:07.947Z,16.60
2019-04-03T13:43:37.834Z,16.82
2019-04-03T13:46:06.767Z,13.78
2019-04-03T13:48:35.225Z,12.37
2019-04-03T13:51:04.088Z,12.50
2019-04-03T13:53:33.011Z,13.83
2019-04-03T13:56:01.554Z,14.87
2019-04-03T13:58:30.577Z,17.00
2019-04-03T14:01:02.799Z,18.10
2019-04-03T14:03:29.256Z,17.30
2019-04-03T14:05:58.167Z,18.90
2019-04-03T14:08:27.015Z,18.17
2019-04-03T14:10:57.248Z,18.07
2019-04-03T14:13:26.803Z,16.55
2019-04-03T14:15:56.298Z,14.98
2019-04-03T14:18:25.042Z,13.45
2019-04-03T14:20:54.020Z,13.65
2019-04-03T14:23:23.731Z,12.73
2019-04-03T14:26:03.042Z,10.45
2019-04-03T14:28:22.329Z,8.70
2019-04-03T14:30:50.748Z,9.60
2019-04-03T14:33:19.739Z,9.58
2019-04-03T14:35:52.997Z,9.08
2019-04-03T14:38:18.912Z,9.48
2019-04-03T14:40:47.373Z,9.20
2019-04-03T14:43:16.466Z,8.98
2019-04-03T14:45:46.090Z,7.95
2019-04-03T14:48:17.232Z,9.20
2019-04-03T14:50:45.813Z,7.92
2019-04-03T14:53:14.856Z,7.78
2019-04-03T14:55:48.173Z,8.43
2019-04-03T14:58:14.519Z,8.33
2019-04-03T15:00:43.368Z,10.10
2019-04-03T15:03:11.875Z,10.95
2019-04-03T15:05:44.226Z,15.03
2019-04-03T15:08:10.783Z,10.88
2019-04-03T15:10:39.459Z,10.40
2019-04-03T15:13:08.039Z,8.70
2019-04-03T15:15:37.052Z,9.55
2019-04-03T15:18:09.323Z,9.03
2019-04-03T15:20:36.119Z,9.50
2019-04-03T15:23:05.589Z,16.77
2019-04-03T15:25:35.059Z,10.55
2019-04-03T15:28:03.851Z,10.45
2019-04-03T15:30:32.898Z,8.65
2019-04-03T15:33:01.473Z,9.05
2019-04-03T15:35:32.079Z,13.08
2019-04-03T15:38:00.555Z,7.70
2019-04-03T15:40:29.821Z,7.87
2019-04-03T15:42:58.487Z,7.90
2019-04-03T15:45:26.909Z,7.45
2019-04-03T15:47:57.540Z,7.37
2019-04-03T15:50:27.423Z,8.20
2019-04-03T15:52:55.983Z,8.93
2019-04-03T15:55:25.424Z,9.68
2019-04-03T15:57:54.078Z,9.23
2019-04-03T16:00:23.752Z,9.03
2019-04-03T16:02:52.411Z,9.55
2019-04-03T16:05:21.544Z,8.50
2019-04-03T16:07:50.475Z,8.38
2019-04-03T16:10:20.337Z,25.60
2019-04-03T16:12:49.103Z,28.65
2019-04-03T16:15:18.193Z,46.92
2019-04-03T16:17:47.416Z,30.77
2019-04-03T16:20:17.607Z,11.65
2019-04-03T16:22:46.308Z,11.35
2019-04-03T16:25:16.766Z,10.00
2019-04-03T16:27:45.335Z,11.95
2019-04-03T16:30:16.146Z,9.98
2019-04-03T16:32:44.665Z,9.88
2019-04-03T16:35:15.239Z,11.38
2019-04-03T16:37:43.839Z,10.15
2019-04-03T16:40:12.993Z,9.30
2019-04-03T16:42:41.724Z,10.48
2019-04-03T16:45:11.193Z,9.78
2019-04-03T16:47:40.180Z,9.75
2019-04-03T16:50:10.244Z,11.57
2019-04-03T16:52:38.814Z,14.58
2019-04-03T16:55:09.295Z,11.90
2019-04-03T16:57:38.255Z,15.95
2019-04-03T17:00:09.973Z,14.03
2019-04-03T17:02:38.907Z,13.40
2019-04-03T17:05:10.425Z,12.78
2019-04-03T17:07:38.622Z,13.25
2019-04-03T17:10:10.482Z,12.35
2019-04-03T17:12:39.351Z,11.88
2019-04-03T17:15:09.743Z,12.30
2019-04-03T17:17:38.943Z,12.10
2019-04-03T17:20:09.668Z,12.28
2019-04-03T17:22:40.762Z,12.18
2019-04-03T17:25:09.815Z,12.93
2019-04-03T17:27:38.256Z,13.08
2019-04-03T17:30:09.253Z,12.70
2019-04-03T17:32:38.677Z,14.35
2019-04-03T17:35:08.732Z,13.32
2019-04-03T17:37:37.432Z,12.30
2019-04-03T17:40:09.225Z,15.90
2019-04-03T17:42:39.341Z,14.40
2019-04-03T17:45:08.683Z,13.28
2019-04-03T17:47:37.168Z,19.50
2019-04-03T17:50:07.116Z,14.30
2019-04-03T17:52:36.357Z,17.85
2019-04-03T17:55:10.876Z,18.48
2019-04-03T18:00:20.974Z,19.12
2019-04-03T18:02:49.555Z,20.08
2019-04-03T18:05:18.428Z,15.18
2019-04-03T18:07:47.115Z,17.77
2019-04-03T18:10:16.336Z,20.90
2019-04-03T18:12:45.899Z,17.82
2019-04-03T18:15:15.171Z,17.92
2019-04-03T18:17:43.923Z,18.42
2019-04-03T18:20:13.467Z,17.75
2019-04-03T18:22:42.263Z,20.97
2019-04-03T18:25:10.864Z,19.17
2019-04-03T18:27:39.606Z,19.82
2019-04-03T18:30:11.779Z,22.32
2019-04-03T18:32:40.469Z,19.70
2019-04-03T18:35:10.035Z,21.93
2019-04-03T18:37:40.829Z,21.35
2019-04-03T18:40:13.974Z,22.48
2019-04-03T18:42:42.028Z,22.65
2019-04-03T18:45:24.196Z,21.95
2019-04-03T18:47:45.840Z,21.57
2019-04-03T18:50:13.634Z,22.73
2019-04-03T18:52:42.214Z,22.52
2019-04-03T18:55:13.922Z,23.65
2019-04-03T18:57:41.283Z,24.07
2019-04-03T19:00:11.269Z,24.25
2019-04-03T19:02:39.706Z,25.55
2019-04-03T19:05:10.931Z,23.52
2019-04-03T19:07:39.531Z,25.48
2019-04-03T19:10:09.464Z,23.45
2019-04-03T19:12:38.093Z,23.67
2019-04-03T19:15:07.887Z,24.47
2019-04-03T19:17:36.800Z,24.23
2019-04-03T19:20:11.628Z,26.75
2019-04-03T19:22:38.506Z,26.05
2019-04-03T19:25:09.051Z,26.75
2019-04-03T19:27:37.744Z,25.12
2019-04-03T19:30:08.610Z,25.10
2019-04-03T19:32:37.234Z,26.37
2019-04-03T19:35:09.531Z,23.87
2019-04-03T19:37:37.691Z,24.65
2019-04-03T19:40:13.472Z,24.30
2019-04-03T19:42:43.754Z,28.47
2019-04-03T19:45:13.127Z,28.83
2019-04-03T19:47:41.704Z,24.37
2019-04-03T19:50:10.588Z,24.95
2019-04-03T19:52:41.484Z,25.32
2019-04-03T19:55:10.215Z,27.62
2019-04-03T19:57:38.644Z,26.60
2019-04-03T20:00:09.054Z,27.85
2019-04-03T20:02:46.220Z,30.88
2019-04-03T20:05:14.647Z,29.30
2019-04-03T20:07:43.420Z,30.25
2019-04-03T20:10:12.112Z,29.80
2019-04-03T20:12:40.657Z,30.50
2019-04-03T20:15:09.743Z,28.83
2019-04-03T20:17:38.173Z,29.98
2019-04-03T20:20:07.675Z,37.05
2019-04-03T20:22:38.182Z,32.60
2019-04-03T20:25:07.568Z,32.13
2019-04-03T20:27:36.161Z,30.40
2019-04-03T20:30:10.300Z,29.98
2019-04-03T20:35:11.113Z,30.10
2019-04-03T20:37:40.184Z,29.55
2019-04-03T20:40:09.511Z,31.68
2019-04-03T20:42:40.664Z,30.10
2019-04-03T20:45:09.399Z,29.40
2019-04-03T20:47:37.925Z,31.20
2019-04-03T20:50:07.693Z,30.35
2019-04-03T20:52:39.292Z,34.18
2019-04-03T20:55:10.775Z,30.68
2019-04-03T20:57:39.607Z,30.62
2019-04-03T21:00:13.103Z,32.33
2019-04-03T21:02:42.302Z,30.62
2019-04-03T21:05:10.791Z,33.23
2019-04-03T21:07:39.219Z,35.10
2019-04-03T21:10:08.295Z,33.40
2019-04-03T21:12:37.074Z,34.88
2019-04-03T21:15:08.562Z,35.48
2019-04-03T21:17:37.852Z,40.75
2019-04-03T21:20:06.633Z,42.85
2019-04-03T21:22:35.423Z,40.28
2019-04-03T21:25:05.977Z,40.92
2019-04-03T21:27:34.831Z,41.92
2019-04-03T21:30:04.699Z,41.30
2019-04-03T21:32:33.127Z,43.95
2019-04-03T21:35:03.910Z,43.33
2019-04-03T21:37:31.715Z,41.37
2019-04-03T21:40:03.225Z,45.38
2019-04-03T21:42:30.299Z,45.58
2019-04-03T21:44:58.738Z,42.67
2019-04-03T21:47:27.411Z,43.75
2019-04-03T21:50:07.686Z,44.77
2019-04-03T21:52:36.371Z,41.23
2019-04-03T21:55:43.181Z,49.27
2019-04-03T21:58:11.617Z,42.75
2019-04-03T22:00:58.634Z,39.50
2019-04-03T22:03:27.252Z,36.60
2019-04-03T22:05:56.522Z,38.42
2019-04-03T22:08:27.008Z,41.48
2019-04-03T22:10:55.571Z,38.42
2019-04-03T22:13:24.044Z,39.92
2019-04-03T22:15:52.807Z,40.78
2019-04-03T22:18:23.511Z,42.83
2019-04-03T22:20:51.387Z,45.50
2019-04-03T22:23:20.099Z,50.25
2019-04-03T22:25:48.536Z,63.08
2019-04-03T22:28:17.047Z,56.48
2019-04-03T22:30:45.468Z,58.85
2019-04-03T22:33:14.257Z,52.73
2019-04-03T22:35:42.683Z,48.68
2019-04-03T22:38:11.428Z,50.52
2019-04-03T22:40:40.743Z,33.45
2019-04-03T22:43:10.032Z,33.25
2019-04-03T22:45:38.471Z,25.72
2019-04-03T22:48:07.218Z,22.15
2019-04-03T22:50:35.881Z,23.05
2019-04-03T22:53:04.443Z,21.80
2019-04-03T22:55:33.186Z,28.05
2019-04-03T22:58:01.966Z,22.05
2019-04-03T23:00:30.760Z,19.25
2019-04-03T23:03:02.552Z,18.70
2019-04-03T23:05:29.610Z,15.90
2019-04-03T23:07:58.363Z,15.85
2019-04-03T23:10:27.973Z,14.15
2019-04-03T23:12:56.951Z,14.05
2019-04-03T23:15:25.383Z,13.38
2019-04-03T23:17:54.149Z,13.72
2019-04-03T23:20:23.499Z,12.07
2019-04-03T23:22:52.244Z,13.83
2019-04-03T23:25:20.683Z,11.05
2019-04-03T23:27:49.420Z,12.00
2019-04-03T23:30:18.112Z,13.15
2019-04-03T23:32:46.630Z,12.33
2019-04-03T23:35:15.427Z,11.35
2019-04-03T23:37:44.179Z,13.83
2019-04-03T23:40:13.202Z,14.20
2019-04-03T23:42:41.970Z,11.85
2019-04-03T23:45:11.043Z,12.47
2019-04-03T23:47:40.622Z,13.80
2019-04-03T23:50:09.204Z,11.65
2019-04-03T23:52:37.958Z,12.47
2019-04-03T23:55:07.152Z,15.03
2019-04-03T23:57:35.932Z,13.78
